Eurodam — PHOS — position and weather

sailwx.info

Track history (hours):
 
Tides and Currents Weather Stations Pressure Air Temp Water Temp Dewpoint Dewpoint Depression Visibility Wind Speed Wind Dir Waves Ship Positions

Eurodam (Netherlands)

Last reported at 2016-Aug-27 00:22 UTC. Time now 2016-Aug-27 01:04 UTC.
Position N 37°14' E 024°17'.

Length 287 m; draft 8 m.

Type: Ship. MMSI: 245206000.

Date/timePositionNaut miles runAvg speedWind from/ knotsBaromVisibWave heightAir tempDewpointWater temp
2016-Aug-27 00:22N 37°14' E 024°17'1416.8
2016-Aug-26 23:33N 37°11' E 023°60'1413.2
2016-Aug-26 22:31N 37°18' E 023°45'1717.3
2016-Aug-26 21:33N 37°35' E 023°43'1818.4
2016-Aug-26 20:33N 37°52' E 023°36'4 4.1
2016-Aug-26 19:31N 37°56' E 023°38'0 0.0
2016-Aug-26 18:31N 37°56' E 023°38'0 0.0
2016-Aug-26 17:31N 37°56' E 023°38'0 0.0
2016-Aug-26 16:31N 37°56' E 023°38'0 0.0
2016-Aug-26 15:31N 37°56' E 023°38'0 0.0
2016-Aug-26 14:31N 37°56' E 023°38'0 0.0
2016-Aug-26 13:31N 37°56' E 023°38'0 0.0
2016-Aug-26 12:31N 37°56' E 023°38'0 0.0
2016-Aug-26 11:31N 37°56' E 023°38'0 0.0
2016-Aug-26 10:31N 37°56' E 023°38'0 0.0
2016-Aug-26 09:31N 37°56' E 023°38'0 0.0
2016-Aug-26 08:31N 37°56' E 023°38'0 0.0
2016-Aug-26 07:31N 37°56' E 023°38'0 0.0
2016-Aug-26 06:31N 37°56' E 023°38'0 0.0
2016-Aug-26 04:31N 37°56' E 023°38'1 1.4
2016-Aug-26 03:34N 37°56' E 023°37'5 5.4
2016-Aug-26 02:33N 37°51' E 023°39'1413.6
2016-Aug-26 01:33N 37°39' E 023°46'1414.5
2016-Aug-26 00:34N 37°24' E 023°50'1413.6
2016-Aug-25 23:32N 37°10' E 023°50'143 6.5
2016-Aug-25 01:33N 37°50' E 020°57'  
2016-Aug-22 19:33N 44°54' E 013°15'1212.4
2016-Aug-22 18:34N 44°55' E 012°58'1211.8
2016-Aug-22 17:32N 45°03' E 012°45'1212.7
2016-Aug-22 16:33N 45°11' E 012°32'1212.2
2016-Aug-22 15:34N 45°23' E 012°30'8 7.7
2016-Aug-22 14:33N 45°26' E 012°20'1 0.9
2016-Aug-22 13:32N 45°26' E 012°19'0 0.0
2016-Aug-22 12:31N 45°26' E 012°19'0 0.0
2016-Aug-22 11:28N 45°26' E 012°19'0 0.0
2016-Aug-22 10:28N 45°26' E 012°19'0 0.0
2016-Aug-22 09:31N 45°26' E 012°19'0 0.0
2016-Aug-22 08:31N 45°26' E 012°19'0 0.0
2016-Aug-22 07:31N 45°26' E 012°19'0 0.0
2016-Aug-22 06:31N 45°26' E 012°19'0 0.0
2016-Aug-22 05:33N 45°26' E 012°19'0 0.0
2016-Aug-22 04:32N 45°26' E 012°19'0 0.0
2016-Aug-22 03:32N 45°26' E 012°19'0 0.0
2016-Aug-22 02:32N 45°26' E 012°19'0 0.0
2016-Aug-22 01:29N 45°26' E 012°19'0 0.0
2016-Aug-22 00:29N 45°26' E 012°19'0 0.0
2016-Aug-21 23:32N 45°26' E 012°19'0 0.0
2016-Aug-21 22:32N 45°26' E 012°19'0 0.0
2016-Aug-21 21:32N 45°26' E 012°19'0 0.0
2016-Aug-21 20:32N 45°26' E 012°19'0 0.0
2016-Aug-21 19:32N 45°26' E 012°19'0 0.0
2016-Aug-21 18:29N 45°26' E 012°19'0 0.0
2016-Aug-21 17:32N 45°26' E 012°19'0 0.0
2016-Aug-21 16:23N 45°26' E 012°19'0 0.0
2016-Aug-21 15:32N 45°26' E 012°19'0 0.0
2016-Aug-21 14:32N 45°26' E 012°19'0 0.0
2016-Aug-21 13:32N 45°26' E 012°19'0 0.0
2016-Aug-21 12:33N 45°26' E 012°19'0 0.0
2016-Aug-21 11:31N 45°26' E 012°19'2 1.8
2016-Aug-21 10:33N 45°26' E 012°21'8 8.3
2016-Aug-21 09:33N 45°22' E 012°32'1212.4
2016-Aug-21 08:33N 45°12' E 012°41'1313.4
2016-Aug-21 07:33N 45°01' E 012°52'1515.1
2016-Aug-21 06:32N 44°47' E 013°01'1515.2
2016-Aug-21 05:32N 44°33' E 013°07'2216.3
2016-Aug-21 04:11N 44°13' E 013°23'12518.8
2016-Aug-20 21:34N 42°56' E 015°37'1918.6
2016-Aug-20 20:33N 42°49' E 016°01'2018.4
2016-Aug-20 19:29N 42°41' E 016°25'9018.2
2016-Aug-20 14:33N 42°23' E 018°25'9 9.3
2016-Aug-20 13:34N 42°26' E 018°37'7 6.6
2016-Aug-20 12:33N 42°27' E 018°45'1 1.9
2016-Aug-20 12:12N 42°27' E 018°46'0 3.8
2016-Aug-20 12:07N 42°27' E 018°46'1 1.5
2016-Aug-20 11:33N 42°26' E 018°46'042.1
2016-Aug-20 11:33N 42°26' E 018°46'078.0
2016-Aug-20 11:33N 42°26' E 018°46'1321.3
2016-Aug-20 11:33N 42°27' E 018°46'023.1
2016-Aug-20 11:32N 42°27' E 018°46'036.7
2016-Aug-20 11:32N 42°27' E 018°45'0 2.8
2016-Aug-20 11:31N 42°27' E 018°46'1 0.9
2016-Aug-20 10:33N 42°26' E 018°46'0447.4
2016-Aug-20 10:33N 42°26' E 018°46'1280.3
2016-Aug-20 10:33N 42°26' E 018°46'1311.9
2016-Aug-20 10:33N 42°27' E 018°46'11578.9
2016-Aug-20 10:33N 42°26' E 018°46'166.7
2016-Aug-20 10:32N 42°27' E 018°46'1132.5
2016-Aug-20 10:31N 42°26' E 018°46'0 0.0
2016-Aug-20 09:33N 42°26' E 018°46'0160.2
2016-Aug-20 09:33N 42°26' E 018°46'1270.8
2016-Aug-20 09:33N 42°27' E 018°46'1150.6
2016-Aug-20 09:33N 42°26' E 018°46'142.3
2016-Aug-20 09:31N 42°27' E 018°46'0 2.4
2016-Aug-20 09:30N 42°27' E 018°46'0 1.9
2016-Aug-20 09:28N 42°27' E 018°46'0 0.3
2016-Aug-20 08:33N 42°27' E 018°45'0131.4
2016-Aug-20 08:33N 42°27' E 018°46'043.3
2016-Aug-20 08:33N 42°27' E 018°46'143.3
2016-Aug-20 08:31N 42°26' E 018°46'139.6
2016-Aug-20 08:29N 42°27' E 018°46'0 0.3
2016-Aug-20 08:26N 42°27' E 018°46'1 1.5
2016-Aug-20 07:33N 42°26' E 018°46'094.1
2016-Aug-20 07:33N 42°26' E 018°46'047.4
2016-Aug-20 07:33N 42°26' E 018°46'13767.9
2016-Aug-20 07:33N 42°27' E 018°46'167.9
2016-Aug-20 07:32N 42°26' E 018°46'149.9
2016-Aug-20 07:30N 42°27' E 018°46'0 0.6
2016-Aug-20 07:27N 42°27' E 018°46'0 0.3
2016-Aug-20 06:33N 42°27' E 018°46'1391.5
2016-Aug-20 06:33N 42°26' E 018°46'1497.2
2016-Aug-20 06:33N 42°27' E 018°46'0 1.9
2016-Aug-20 06:31N 42°27' E 018°46'1109.7
2016-Aug-20 06:30N 42°26' E 018°46'148.3
2016-Aug-20 06:28N 42°27' E 018°46'0 0.1
2016-Aug-20 05:34N 42°27' E 018°46'032.9
2016-Aug-20 05:33N 42°27' E 018°46'022.2
2016-Aug-20 05:33N 42°27' E 018°46'4 4.2
2016-Aug-20 04:33N 42°27' E 018°40'6 6.2
2016-Aug-20 03:34N 42°24' E 018°33'9 8.7
2016-Aug-20 02:34N 42°16' E 018°27'9 9.0
2016-Aug-20 01:34N 42°10' E 018°17'9 9.4
2016-Aug-20 00:33N 42°19' E 018°12'9 9.5
2016-Aug-19 23:33N 42°28' E 018°08'2 0.1
2016-Aug-19 04:33N 42°26' E 018°09'1313.5
2016-Aug-19 03:33N 42°14' E 018°15'1413.6
2016-Aug-19 02:33N 42°01' E 018°22'1414.0
2016-Aug-19 01:33N 41°48' E 018°28'1414.1
2016-Aug-19 00:33N 41°34' E 018°34'3013.4
2016-Aug-18 22:18N 41°06' E 018°49'  
Track history (hours):
 
Tides and Currents Weather Stations Pressure Air Temp Water Temp Dewpoint Dewpoint Depression Visibility Wind Speed Wind Dir Waves Ship Positions

Eurodam (Netherlands)

Last reported at 2016-Aug-27 00:22 UTC. Time now 2016-Aug-27 01:04 UTC.
Position N 37°14' E 024°17'.

Length 287 m; draft 8 m.

Type: Ship. MMSI: 245206000.

Date/timePositionNaut miles runAvg speedWind from/ knotsBaromVisibWave heightAir tempDewpointWater temp
2016-Aug-27 00:22N 37°14' E 024°17'1416.8
2016-Aug-26 23:33N 37°11' E 023°60'1413.2
2016-Aug-26 22:31N 37°18' E 023°45'1717.3
2016-Aug-26 21:33N 37°35' E 023°43'1818.4
2016-Aug-26 20:33N 37°52' E 023°36'4 4.1
2016-Aug-26 19:31N 37°56' E 023°38'0 0.0
2016-Aug-26 18:31N 37°56' E 023°38'0 0.0
2016-Aug-26 17:31N 37°56' E 023°38'0 0.0
2016-Aug-26 16:31N 37°56' E 023°38'0 0.0
2016-Aug-26 15:31N 37°56' E 023°38'0 0.0
2016-Aug-26 14:31N 37°56' E 023°38'0 0.0
2016-Aug-26 13:31N 37°56' E 023°38'0 0.0
2016-Aug-26 12:31N 37°56' E 023°38'0 0.0
2016-Aug-26 11:31N 37°56' E 023°38'0 0.0
2016-Aug-26 10:31N 37°56' E 023°38'0 0.0
2016-Aug-26 09:31N 37°56' E 023°38'0 0.0
2016-Aug-26 08:31N 37°56' E 023°38'0 0.0
2016-Aug-26 07:31N 37°56' E 023°38'0 0.0
2016-Aug-26 06:31N 37°56' E 023°38'0 0.0
2016-Aug-26 04:31N 37°56' E 023°38'1 1.4
2016-Aug-26 03:34N 37°56' E 023°37'5 5.4
2016-Aug-26 02:33N 37°51' E 023°39'1413.6
2016-Aug-26 01:33N 37°39' E 023°46'1414.5
2016-Aug-26 00:34N 37°24' E 023°50'1413.6
2016-Aug-25 23:32N 37°10' E 023°50'143 6.5
2016-Aug-25 01:33N 37°50' E 020°57'  
2016-Aug-22 19:33N 44°54' E 013°15'1212.4
2016-Aug-22 18:34N 44°55' E 012°58'1211.8
2016-Aug-22 17:32N 45°03' E 012°45'1212.7
2016-Aug-22 16:33N 45°11' E 012°32'1212.2
2016-Aug-22 15:34N 45°23' E 012°30'8 7.7
2016-Aug-22 14:33N 45°26' E 012°20'1 0.9
2016-Aug-22 13:32N 45°26' E 012°19'0 0.0
2016-Aug-22 12:31N 45°26' E 012°19'0 0.0
2016-Aug-22 11:28N 45°26' E 012°19'0 0.0
2016-Aug-22 10:28N 45°26' E 012°19'0 0.0
2016-Aug-22 09:31N 45°26' E 012°19'0 0.0
2016-Aug-22 08:31N 45°26' E 012°19'0 0.0
2016-Aug-22 07:31N 45°26' E 012°19'0 0.0
2016-Aug-22 06:31N 45°26' E 012°19'0 0.0
2016-Aug-22 05:33N 45°26' E 012°19'0 0.0
2016-Aug-22 04:32N 45°26' E 012°19'0 0.0
2016-Aug-22 03:32N 45°26' E 012°19'0 0.0
2016-Aug-22 02:32N 45°26' E 012°19'0 0.0
2016-Aug-22 01:29N 45°26' E 012°19'0 0.0
2016-Aug-22 00:29N 45°26' E 012°19'0 0.0
2016-Aug-21 23:32N 45°26' E 012°19'0 0.0
2016-Aug-21 22:32N 45°26' E 012°19'0 0.0
2016-Aug-21 21:32N 45°26' E 012°19'0 0.0
2016-Aug-21 20:32N 45°26' E 012°19'0 0.0
2016-Aug-21 19:32N 45°26' E 012°19'0 0.0
2016-Aug-21 18:29N 45°26' E 012°19'0 0.0
2016-Aug-21 17:32N 45°26' E 012°19'0 0.0
2016-Aug-21 16:23N 45°26' E 012°19'0 0.0
2016-Aug-21 15:32N 45°26' E 012°19'0 0.0
2016-Aug-21 14:32N 45°26' E 012°19'0 0.0
2016-Aug-21 13:32N 45°26' E 012°19'0 0.0
2016-Aug-21 12:33N 45°26' E 012°19'0 0.0
2016-Aug-21 11:31N 45°26' E 012°19'2 1.8
2016-Aug-21 10:33N 45°26' E 012°21'8 8.3
2016-Aug-21 09:33N 45°22' E 012°32'1212.4
2016-Aug-21 08:33N 45°12' E 012°41'1313.4
2016-Aug-21 07:33N 45°01' E 012°52'1515.1
2016-Aug-21 06:32N 44°47' E 013°01'1515.2
2016-Aug-21 05:32N 44°33' E 013°07'2216.3
2016-Aug-21 04:11N 44°13' E 013°23'12518.8
2016-Aug-20 21:34N 42°56' E 015°37'1918.6
2016-Aug-20 20:33N 42°49' E 016°01'2018.4
2016-Aug-20 19:29N 42°41' E 016°25'9018.2
2016-Aug-20 14:33N 42°23' E 018°25'9 9.3
2016-Aug-20 13:34N 42°26' E 018°37'7 6.6
2016-Aug-20 12:33N 42°27' E 018°45'1 1.9
2016-Aug-20 12:12N 42°27' E 018°46'0 3.8
2016-Aug-20 12:07N 42°27' E 018°46'1 1.5
2016-Aug-20 11:33N 42°26' E 018°46'042.1
2016-Aug-20 11:33N 42°26' E 018°46'078.0
2016-Aug-20 11:33N 42°26' E 018°46'1321.3
2016-Aug-20 11:33N 42°27' E 018°46'023.1
2016-Aug-20 11:32N 42°27' E 018°46'036.7
2016-Aug-20 11:32N 42°27' E 018°45'0 2.8
2016-Aug-20 11:31N 42°27' E 018°46'1 0.9
2016-Aug-20 10:33N 42°26' E 018°46'0447.4
2016-Aug-20 10:33N 42°26' E 018°46'1280.3
2016-Aug-20 10:33N 42°26' E 018°46'1311.9
2016-Aug-20 10:33N 42°27' E 018°46'11578.9
2016-Aug-20 10:33N 42°26' E 018°46'166.7
2016-Aug-20 10:32N 42°27' E 018°46'1132.5
2016-Aug-20 10:31N 42°26' E 018°46'0 0.0
2016-Aug-20 09:33N 42°26' E 018°46'0160.2
2016-Aug-20 09:33N 42°26' E 018°46'1270.8
2016-Aug-20 09:33N 42°27' E 018°46'1150.6
2016-Aug-20 09:33N 42°26' E 018°46'142.3
2016-Aug-20 09:31N 42°27' E 018°46'0 2.4
2016-Aug-20 09:30N 42°27' E 018°46'0 1.9
2016-Aug-20 09:28N 42°27' E 018°46'0 0.3
2016-Aug-20 08:33N 42°27' E 018°45'0131.4
2016-Aug-20 08:33N 42°27' E 018°46'043.3
2016-Aug-20 08:33N 42°27' E 018°46'143.3
2016-Aug-20 08:31N 42°26' E 018°46'139.6
2016-Aug-20 08:29N 42°27' E 018°46'0 0.3
2016-Aug-20 08:26N 42°27' E 018°46'1 1.5
2016-Aug-20 07:33N 42°26' E 018°46'094.1
2016-Aug-20 07:33N 42°26' E 018°46'047.4
2016-Aug-20 07:33N 42°26' E 018°46'13767.9
2016-Aug-20 07:33N 42°27' E 018°46'167.9
2016-Aug-20 07:32N 42°26' E 018°46'149.9
2016-Aug-20 07:30N 42°27' E 018°46'0 0.6
2016-Aug-20 07:27N 42°27' E 018°46'0 0.3
2016-Aug-20 06:33N 42°27' E 018°46'1391.5
2016-Aug-20 06:33N 42°26' E 018°46'1497.2
2016-Aug-20 06:33N 42°27' E 018°46'0 1.9
2016-Aug-20 06:31N 42°27' E 018°46'1109.7
2016-Aug-20 06:30N 42°26' E 018°46'148.3
2016-Aug-20 06:28N 42°27' E 018°46'0 0.1
2016-Aug-20 05:34N 42°27' E 018°46'032.9
2016-Aug-20 05:33N 42°27' E 018°46'022.2
2016-Aug-20 05:33N 42°27' E 018°46'4 4.2
2016-Aug-20 04:33N 42°27' E 018°40'6 6.2
2016-Aug-20 03:34N 42°24' E 018°33'9 8.7
2016-Aug-20 02:34N 42°16' E 018°27'9 9.0
2016-Aug-20 01:34N 42°10' E 018°17'9 9.4
2016-Aug-20 00:33N 42°19' E 018°12'9 9.5
2016-Aug-19 23:33N 42°28' E 018°08'2 0.1
2016-Aug-19 04:33N 42°26' E 018°09'1313.5
2016-Aug-19 03:33N 42°14' E 018°15'1413.6
2016-Aug-19 02:33N 42°01' E 018°22'1414.0
2016-Aug-19 01:33N 41°48' E 018°28'1414.1
2016-Aug-19 00:33N 41°34' E 018°34'3013.4
2016-Aug-18 22:18N 41°06' E 018°49'  

Dump ship's entire track history